createdAt,value
2019-01-20T00:08:41.469Z,5.07
2019-01-20T00:18:45.057Z,6.10
2019-01-20T00:28:48.657Z,5.53
2019-01-20T00:38:52.218Z,8.17
2019-01-20T00:48:55.791Z,5.70
2019-01-20T00:58:59.605Z,5.63
2019-01-20T01:09:04.041Z,6.27
2019-01-20T01:19:07.778Z,9.23
2019-01-20T01:29:11.342Z,7.63
2019-01-20T01:39:14.906Z,5.37
2019-01-20T01:49:18.482Z,5.43
2019-01-20T01:59:22.046Z,5.90
2019-01-20T02:09:25.846Z,5.07
2019-01-20T02:19:29.422Z,6.03
2019-01-20T02:29:32.989Z,5.00
2019-01-20T02:39:36.550Z,7.33
2019-01-20T02:49:40.115Z,6.53
2019-01-20T02:59:43.690Z,5.43
2019-01-20T03:09:47.274Z,6.20
2019-01-20T03:19:50.830Z,5.40
2019-01-20T03:29:54.402Z,6.70
2019-01-20T03:39:57.973Z,5.50
2019-01-20T03:50:01.569Z,5.53
2019-01-20T04:00:07.054Z,8.17
2019-01-20T04:10:12.418Z,6.43
2019-01-20T04:20:16.003Z,6.33
2019-01-20T04:30:20.161Z,6.40
2019-01-20T04:40:24.184Z,5.50
2019-01-20T04:50:27.759Z,6.37
2019-01-20T05:00:31.322Z,7.00
2019-01-20T05:10:34.914Z,5.60
2019-01-20T05:20:38.484Z,7.73
2019-01-20T05:30:42.058Z,9.57
2019-01-20T05:40:45.854Z,9.20
2019-01-20T05:50:49.431Z,7.67
2019-01-20T06:00:52.993Z,9.63
2019-01-20T06:10:56.567Z,7.50
2019-01-20T06:21:00.155Z,7.40
2019-01-20T06:31:03.720Z,9.73
2019-01-20T06:41:07.279Z,23.90
2019-01-20T06:51:11.122Z,19.67
2019-01-20T07:01:14.694Z,17.93
2019-01-20T07:11:18.302Z,16.33
2019-01-20T07:21:21.874Z,23.00
2019-01-20T07:31:25.711Z,16.20
2019-01-20T07:41:29.277Z,16.53
2019-01-20T07:51:32.839Z,25.77
2019-01-20T08:01:36.407Z,18.70
2019-01-20T08:11:40.842Z,17.17
2019-01-20T08:21:44.550Z,17.17
2019-01-20T08:31:48.130Z,16.20
2019-01-20T08:41:51.695Z,17.03
2019-01-20T08:51:55.259Z,17.40
2019-01-20T09:01:58.817Z,14.13
2019-01-20T09:12:02.454Z,9.10
2019-01-20T09:22:06.060Z,11.00
2019-01-20T09:32:09.624Z,10.97
2019-01-20T09:42:13.183Z,18.63
2019-01-20T09:52:16.811Z,9.90
2019-01-20T10:02:20.406Z,8.63
2019-01-20T10:12:24.000Z,12.10
2019-01-20T10:22:28.342Z,7.73
2019-01-20T10:32:32.070Z,15.97
2019-01-20T10:42:35.746Z,14.83
2019-01-20T10:52:39.720Z,16.03
2019-01-20T11:02:56.391Z,10.63
2019-01-20T11:13:00.030Z,13.50
2019-01-20T11:23:04.549Z,10.13
2019-01-20T11:33:08.314Z,8.50
2019-01-20T11:43:12.159Z,13.97
2019-01-20T11:53:15.834Z,18.13
2019-01-20T12:03:28.559Z,15.60
2019-01-20T12:13:32.543Z,16.07
2019-01-20T12:23:36.121Z,22.27
2019-01-20T12:33:39.714Z,19.27
2019-01-20T12:43:43.272Z,16.77
2019-01-20T12:53:47.007Z,18.43
2019-01-20T13:03:50.631Z,14.37
2019-01-20T13:13:54.262Z,20.40
2019-01-20T13:23:57.850Z,17.43
2019-01-20T13:34:01.410Z,22.60
2019-01-20T13:44:05.215Z,20.20
2019-01-20T13:54:08.778Z,25.37
2019-01-20T14:04:12.345Z,27.63
2019-01-20T14:14:15.922Z,31.27
2019-01-20T14:24:19.705Z,28.93
2019-01-20T14:34:23.279Z,32.00
2019-01-20T14:44:26.934Z,27.83
2019-01-20T14:54:30.530Z,30.17
2019-01-20T15:04:34.110Z,25.73
2019-01-20T15:14:37.677Z,15.43
2019-01-20T15:24:41.278Z,16.17
2019-01-20T15:34:44.874Z,16.70
2019-01-20T15:44:48.426Z,18.20
2019-01-20T15:54:51.998Z,19.50
2019-01-20T16:04:59.574Z,21.33
2019-01-20T16:15:03.177Z,25.20
2019-01-20T16:25:11.683Z,23.50
2019-01-20T16:35:15.402Z,34.90
2019-01-20T16:45:32.905Z,33.50
2019-01-20T16:55:36.598Z,36.10
2019-01-20T17:05:40.649Z,26.23
2019-01-20T17:15:45.435Z,19.47
2019-01-20T17:25:49.012Z,35.00
2019-01-20T17:35:52.597Z,28.33
2019-01-20T17:45:56.179Z,22.67
2019-01-20T17:55:59.750Z,25.57
2019-01-20T18:06:03.342Z,24.20
2019-01-20T18:16:06.910Z,19.53
2019-01-20T18:26:12.547Z,27.57
2019-01-20T18:36:16.135Z,36.73
2019-01-20T18:46:19.742Z,35.30
2019-01-20T18:56:23.378Z,32.30
2019-01-20T19:06:26.963Z,34.63
2019-01-20T19:16:30.675Z,41.80
2019-01-20T19:26:34.254Z,35.70
2019-01-20T19:36:37.817Z,29.00
2019-01-20T19:46:41.383Z,23.20
2019-01-20T19:56:44.962Z,23.20
2019-01-20T20:06:48.551Z,28.43
2019-01-20T20:16:52.138Z,15.17
2019-01-20T20:26:55.727Z,14.40
2019-01-20T20:37:00.401Z,13.47
2019-01-20T20:47:04.257Z,19.90
2019-01-20T20:57:07.844Z,19.77
2019-01-20T21:07:11.663Z,14.73
2019-01-20T21:17:15.366Z,28.13
2019-01-20T21:27:19.026Z,26.30
2019-01-20T21:37:22.819Z,33.30
2019-01-20T21:47:26.642Z,27.63
2019-01-20T21:57:30.238Z,23.60
2019-01-20T22:07:34.018Z,25.37
2019-01-20T22:17:37.938Z,41.17
2019-01-20T22:27:42.378Z,20.57
2019-01-20T22:37:46.886Z,17.07
2019-01-20T22:47:50.450Z,23.60
2019-01-20T22:57:54.779Z,19.70
2019-01-20T23:07:58.357Z,27.83
2019-01-20T23:18:01.961Z,21.30
2019-01-20T23:28:05.578Z,9.93
2019-01-20T23:38:09.181Z,7.50
2019-01-20T23:48:12.783Z,22.63
2019-01-20T23:58:16.372Z,23.43
